KMER

Castle Airport

Atwater, California, USA
METAR KMER 220345Z 34010KT 10SM SKC 08/08 A3023
Observed Flight Rules
Jan-22 @ 03:45 UTC (32 minutes ago) Visual Flight Rules
Wind Visibility Clouds
340° at 10 knots 10 miles
  • Clear skies
Temperatures Readings
Current 8°C / 46°F
Dewpoint 8°C / 46°F
Humidity 100%
Altimeter 30.23" Hg
Pressure 1023.72 hPa
Elevation 57
METAR KMER 220345Z 34010KT 10SM SKC 08/08 A3023
Observed Flight Rules
Jan-22 @ 03:45 UTC
(32 minutes ago)
VFR
Wind Visibility
340° at 10 knots 10 miles
Clouds
  • Clear skies
Temperature Dewpoint
8°C / 46°F 8°C / 46°F
Humidity Altimeter Pressure
100% 30.23" Hg 1023.72 hPa